This is the latest recevied weather packets stored in our database for station/object GBTWP-2. If no packets are shown the sender has not sent any weather packets the latest 10 day(s).
| Time | Temp. | Humidity | Pressure | Rain* | Wind** | Luminosity | Snow |
|---|---|---|---|---|---|---|---|
| 1787523119 | 16.11° C | 89% | 1015.5 hPa | 0 mm | - | 83 W/m² | - |
| 1787522825 | 16.11° C | 89% | 1015.6 hPa | 3.05 mm | - | 93 W/m² | - |
| 1787522519 | 16.67° C | 88% | 1015.8 hPa | 4.83 mm | - | 145 W/m² | - |
| 1787522220 | 17.22° C | 89% | 1015.6 hPa | 1.78 mm | - | 40 W/m² | - |
| 1787521919 | 17.22° C | 89% | 1015.4 hPa | 0 mm | - | 84 W/m² | - |
| 1787521620 | 16.67° C | 89% | 1015.3 hPa | 0 mm | - | 104 W/m² | - |
| 1787521319 | 16.67° C | 91% | 1015.4 hPa | 0 mm | - | 141 W/m² | - |
| 1787521020 | 16.11° C | 90% | 1015.2 hPa | 0 mm | - | 135 W/m² | - |
| 1787520719 | 16.11° C | 89% | 1015.3 hPa | 0 mm | - | 85 W/m² | - |
| 1787520420 | 16.67° C | 90% | 1015.5 hPa | 0 mm | - | 74 W/m² | - |
| 1787520120 | 16.67° C | 89% | 1015.3 hPa | 0 mm | - | 81 W/m² | - |
| 1787519817 | 16.67° C | 89% | 1015.5 hPa | 0 mm | - | 81 W/m² | - |
| 1787519520 | 16.11° C | 90% | 1015.3 hPa | 0 mm | - | 148 W/m² | - |
| 1787519220 | 16.11° C | 91% | 1015.2 hPa | 0 mm | - | 148 W/m² | - |
| 1787518920 | 16.11° C | 92% | 1015.1 hPa | 0 mm | - | 190 W/m² | - |
| 1787518618 | 15.56° C | 91% | 1015.2 hPa | 0 mm | - | 114 W/m² | - |
| 1787518319 | 15.56° C | 91% | 1015.2 hPa | 1.27 mm | - | 135 W/m² | - |
| 1787518020 | 15.56° C | 91% | 1015.4 hPa | 1.27 mm | - | 127 W/m² | - |
| 1787517719 | 15.56° C | 89% | 1015.4 hPa | 0 mm | - | 68 W/m² | - |
| 1787517420 | 16.11° C | 88% | 1015.3 hPa | 0 mm | - | 35 W/m² | - |
| 1787517119 | 17.78° C | 84% | 1015.2 hPa | 1.78 mm | - | 23 W/m² | - |
| 1787516820 | 19.44° C | 77% | 1015 hPa | 1.78 mm | - | 41 W/m² | - |
| 1787516519 | 20.56° C | 67% | 1014.7 hPa | 0 mm | - | 24 W/m² | - |
| 1787516223 | 20.56° C | 67% | 1014.6 hPa | 0 mm | - | 49 W/m² | - |
| 1787515920 | 20.56° C | 66% | 1014.5 hPa | 0 mm | - | 61 W/m² | - |
* Rain latest hour (hover to see other rain measurements)
** Current wind speed in m/s (hover to see current wind gust speed)